createdAt,value
2023-02-01T00:00:34.997Z,5.30
2023-02-01T00:03:22.128Z,4.20
2023-02-01T00:05:59.606Z,3.30
2023-02-01T00:08:27.087Z,2.80
2023-02-01T00:11:08.781Z,4.70
2023-02-01T00:13:40.410Z,3.90
2023-02-01T00:16:14.870Z,4.80
2023-02-01T00:18:41.985Z,3.40
2023-02-01T00:21:11.303Z,5.60
2023-02-01T00:23:39.349Z,6.90
2023-02-01T00:26:08.714Z,4.10
2023-02-01T00:28:36.620Z,2.50
2023-02-01T00:31:04.894Z,4.20
2023-02-01T00:33:33.032Z,3.10
2023-02-01T00:36:02.228Z,2.60
2023-02-01T00:38:30.402Z,3.50
2023-02-01T00:41:04.586Z,2.60
2023-02-01T00:43:32.605Z,2.40
2023-02-01T00:45:59.784Z,2.30
2023-02-01T00:48:27.212Z,3.20
2023-02-01T00:50:54.237Z,2.50
2023-02-01T00:53:21.267Z,3.50
2023-02-01T00:55:48.943Z,3.40
2023-02-01T00:58:16.183Z,3.20
2023-02-01T01:00:43.255Z,2.10
2023-02-01T01:03:19.558Z,3.00
2023-02-01T01:05:50.100Z,3.20
2023-02-01T01:08:17.268Z,6.20
2023-02-01T01:10:44.184Z,2.60
2023-02-01T01:13:11.131Z,3.20
2023-02-01T01:15:39.923Z,2.30
2023-02-01T01:18:07.719Z,2.30
2023-02-01T01:20:37.033Z,3.10
2023-02-01T01:23:04.235Z,4.10
2023-02-01T01:25:31.827Z,4.60
2023-02-01T01:27:59.019Z,1.90
2023-02-01T01:30:25.968Z,4.40
2023-02-01T01:32:52.895Z,2.10
2023-02-01T01:35:19.850Z,2.50
2023-02-01T01:37:46.807Z,4.80
2023-02-01T01:40:13.829Z,2.30
2023-02-01T01:42:43.124Z,2.80
2023-02-01T01:45:29.771Z,1.50
2023-02-01T01:48:00.055Z,2.70
2023-02-01T01:50:32.155Z,1.50
2023-02-01T01:53:03.615Z,3.00
2023-02-01T01:55:34.327Z,2.70
2023-02-01T01:58:06.173Z,2.90
2023-02-01T02:00:33.895Z,2.70
2023-02-01T02:03:27.833Z,2.20
2023-02-01T02:05:58.109Z,4.20
2023-02-01T02:08:27.634Z,3.20
2023-02-01T02:11:00.883Z,2.10
2023-02-01T02:13:38.663Z,3.60
2023-02-01T02:16:36.145Z,2.10
2023-02-01T02:19:05.938Z,4.60
2023-02-01T02:21:32.832Z,5.10
2023-02-01T02:24:26.009Z,5.30
2023-02-01T02:27:24.942Z,4.20
2023-02-01T02:30:11.647Z,5.10
2023-02-01T02:32:56.692Z,3.80
2023-02-01T02:35:35.020Z,4.60
2023-02-01T02:38:02.394Z,4.60
2023-02-01T02:41:04.670Z,4.00
2023-02-01T02:44:05.271Z,4.20
2023-02-01T02:47:07.375Z,4.90
2023-02-01T02:50:23.434Z,3.30
2023-02-01T02:53:26.735Z,5.00
2023-02-01T02:56:13.247Z,4.20
2023-02-01T02:59:00.144Z,4.10
2023-02-01T03:01:46.491Z,3.60
2023-02-01T03:04:17.924Z,3.80
2023-02-01T03:06:46.359Z,3.90
2023-02-01T03:09:36.318Z,2.10
2023-02-01T03:12:32.598Z,1.70
2023-02-01T03:15:08.858Z,4.40
2023-02-01T03:17:40.212Z,2.50
2023-02-01T03:20:11.333Z,2.10
2023-02-01T03:22:41.468Z,3.50
2023-02-01T03:25:15.183Z,2.90
2023-02-01T03:27:43.692Z,3.50
2023-02-01T03:30:19.805Z,4.70
2023-02-01T03:33:00.132Z,3.10
2023-02-01T03:35:37.271Z,2.60
2023-02-01T03:38:17.959Z,2.80
2023-02-01T03:40:51.098Z,2.30
2023-02-01T03:43:20.891Z,1.60
2023-02-01T03:45:55.073Z,3.80
2023-02-01T03:48:24.707Z,3.70
2023-02-01T03:50:56.178Z,3.10
2023-02-01T03:53:25.758Z,2.40
2023-02-01T03:55:54.745Z,2.50
2023-02-01T03:58:23.692Z,7.60
2023-02-01T04:00:58.722Z,2.40
2023-02-01T04:03:27.879Z,2.40
2023-02-01T04:05:55.546Z,4.50
2023-02-01T04:08:24.693Z,2.90
2023-02-01T04:10:51.708Z,12.50
2023-02-01T04:13:18.664Z,4.50
2023-02-01T04:15:50.140Z,3.40
2023-02-01T04:18:17.259Z,3.80
2023-02-01T04:20:45.408Z,2.00
2023-02-01T04:23:12.433Z,2.80
2023-02-01T04:25:39.427Z,2.50
2023-02-01T04:28:07.379Z,2.60
2023-02-01T04:30:34.463Z,1.80
2023-02-01T04:33:04.093Z,3.10
2023-02-01T04:35:31.170Z,2.30
2023-02-01T04:37:58.087Z,4.30
2023-02-01T04:40:25.401Z,2.50
2023-02-01T04:42:52.505Z,2.40
2023-02-01T04:45:19.509Z,2.50
2023-02-01T04:47:46.555Z,4.30
2023-02-01T04:50:13.504Z,2.70
2023-02-01T04:52:40.917Z,1.70
2023-02-01T04:55:08.321Z,1.70
2023-02-01T04:57:35.288Z,2.60
2023-02-01T05:00:02.382Z,2.20
2023-02-01T05:02:29.376Z,2.10
2023-02-01T05:04:56.546Z,5.80
2023-02-01T05:07:23.513Z,3.70
2023-02-01T05:09:50.476Z,3.60
2023-02-01T05:12:35.959Z,2.70
2023-02-01T05:15:03.177Z,3.00
2023-02-01T05:17:30.095Z,1.80
2023-02-01T05:19:57.392Z,4.00
2023-02-01T05:22:24.404Z,2.60
2023-02-01T05:24:51.434Z,3.40
2023-02-01T05:27:18.412Z,2.60
2023-02-01T05:29:45.407Z,2.50
2023-02-01T05:32:22.049Z,2.50
2023-02-01T05:34:50.265Z,2.10
2023-02-01T05:37:17.377Z,3.10
2023-02-01T05:39:44.332Z,3.10
2023-02-01T05:42:11.455Z,3.40
2023-02-01T05:44:38.425Z,4.90
2023-02-01T05:47:05.525Z,5.70
2023-02-01T05:49:32.556Z,4.60
2023-02-01T05:52:00.596Z,5.30
2023-02-01T05:54:27.794Z,4.30
2023-02-01T05:56:54.791Z,4.90
2023-02-01T05:59:21.720Z,5.80
2023-02-01T06:01:48.753Z,4.20
2023-02-01T06:04:15.727Z,3.80
2023-02-01T06:06:42.873Z,3.30
2023-02-01T06:09:09.871Z,5.20
2023-02-01T06:11:36.833Z,5.50
2023-02-01T06:14:03.846Z,5.90
2023-02-01T06:16:32.103Z,5.30
2023-02-01T06:18:59.041Z,8.30
2023-02-01T06:21:26.081Z,7.40
2023-02-01T06:23:55.273Z,5.80
2023-02-01T06:26:22.421Z,5.40
2023-02-01T06:28:49.977Z,4.60
2023-02-01T06:31:17.115Z,4.50
2023-02-01T06:33:44.215Z,5.50
2023-02-01T06:36:12.758Z,3.00
2023-02-01T06:38:39.889Z,4.10
2023-02-01T06:41:07.010Z,6.30
2023-02-01T06:43:34.433Z,8.50
2023-02-01T06:46:12.982Z,4.60
2023-02-01T06:48:40.049Z,5.50
2023-02-01T06:51:07.111Z,5.70
2023-02-01T06:53:34.855Z,6.50
2023-02-01T06:56:03.522Z,9.20
2023-02-01T06:58:32.254Z,6.10
2023-02-01T07:01:05.559Z,6.60
2023-02-01T07:03:32.989Z,6.20
2023-02-01T07:06:00.100Z,7.50
2023-02-01T07:08:32.022Z,7.00
2023-02-01T07:11:09.712Z,8.90
2023-02-01T07:13:37.111Z,8.70
2023-02-01T07:16:07.592Z,9.20
2023-02-01T07:18:34.572Z,18.10
2023-02-01T07:21:01.557Z,11.00
2023-02-01T07:23:28.662Z,9.90
2023-02-01T07:26:01.106Z,9.90
2023-02-01T07:28:30.348Z,8.20
2023-02-01T07:31:12.200Z,9.50
2023-02-01T07:33:39.444Z,11.30
2023-02-01T07:36:08.335Z,9.10
2023-02-01T07:38:35.342Z,9.90
2023-02-01T07:41:04.108Z,13.00
2023-02-01T07:43:31.696Z,10.70
2023-02-01T07:45:58.757Z,9.00
2023-02-01T07:48:27.592Z,9.20
2023-02-01T07:51:05.890Z,7.10
2023-02-01T07:53:34.112Z,6.70
2023-02-01T07:56:01.876Z,7.20
2023-02-01T07:58:31.000Z,6.40
2023-02-01T08:01:16.695Z,6.10
2023-02-01T08:03:43.819Z,5.90
2023-02-01T08:06:10.833Z,5.50
2023-02-01T08:08:38.417Z,7.90
2023-02-01T08:11:07.122Z,4.90
2023-02-01T08:13:35.621Z,4.60
2023-02-01T08:16:05.360Z,4.20
2023-02-01T08:18:33.286Z,3.00
2023-02-01T08:21:05.889Z,3.40
2023-02-01T08:23:36.673Z,5.20
2023-02-01T08:26:15.048Z,5.30
2023-02-01T08:28:53.905Z,4.20
2023-02-01T08:31:23.337Z,7.10
2023-02-01T08:33:58.599Z,5.10
2023-02-01T08:36:28.074Z,6.50
2023-02-01T08:38:55.401Z,6.00
2023-02-01T08:41:24.912Z,5.40
2023-02-01T08:43:53.270Z,5.20
2023-02-01T08:46:20.356Z,5.90
2023-02-01T08:48:48.162Z,5.30
2023-02-01T08:51:17.473Z,6.30
2023-02-01T08:53:45.154Z,5.50
2023-02-01T08:56:14.360Z,7.10
2023-02-01T08:58:41.541Z,5.20
2023-02-01T09:01:12.097Z,6.50
2023-02-01T09:03:39.401Z,7.70
2023-02-01T09:06:09.240Z,6.70
2023-02-01T09:08:37.043Z,7.50
2023-02-01T09:11:07.555Z,5.90
2023-02-01T09:13:35.790Z,6.60
2023-02-01T09:16:03.943Z,5.60
2023-02-01T09:18:31.165Z,7.40
2023-02-01T09:20:58.243Z,6.80
2023-02-01T09:23:25.590Z,7.30
2023-02-01T09:25:53.015Z,7.20
2023-02-01T09:28:20.434Z,7.70
2023-02-01T09:30:47.651Z,10.00
2023-02-01T09:33:14.837Z,5.80
2023-02-01T09:35:41.746Z,7.20
2023-02-01T09:38:08.870Z,7.40
2023-02-01T09:40:36.250Z,7.80
2023-02-01T09:43:03.204Z,6.80
2023-02-01T09:45:30.118Z,6.20
2023-02-01T09:48:15.265Z,7.20
2023-02-01T09:51:04.408Z,8.10
2023-02-01T09:53:47.793Z,7.00
2023-02-01T09:56:24.204Z,9.40
2023-02-01T09:59:04.830Z,6.40
2023-02-01T10:01:32.392Z,8.90
2023-02-01T10:04:13.429Z,6.20
2023-02-01T10:09:35.135Z,7.10
2023-02-01T10:12:24.553Z,10.00
2023-02-01T10:15:13.977Z,8.20
2023-02-01T10:17:59.606Z,9.90
2023-02-01T10:21:03.574Z,7.60
2023-02-01T10:23:34.889Z,7.40
2023-02-01T10:26:18.378Z,6.70
2023-02-01T10:28:50.786Z,6.50
2023-02-01T10:31:19.403Z,9.60
2023-02-01T10:33:52.998Z,7.30
2023-02-01T10:36:33.155Z,8.30
2023-02-01T10:39:00.631Z,9.60
2023-02-01T10:41:34.456Z,11.50
2023-02-01T10:44:06.848Z,8.60
2023-02-01T10:46:34.468Z,6.10
2023-02-01T10:49:05.164Z,11.80
2023-02-01T10:52:16.641Z,8.40
2023-02-01T10:54:43.728Z,8.50
2023-02-01T10:57:21.830Z,5.60
2023-02-01T10:59:48.811Z,4.00
2023-02-01T11:02:35.141Z,4.60
2023-02-01T11:05:12.545Z,5.10
2023-02-01T11:07:46.661Z,6.00
2023-02-01T11:10:41.021Z,5.50
2023-02-01T11:13:16.438Z,6.40
2023-02-01T11:15:45.946Z,3.60
2023-02-01T11:18:19.258Z,4.20
2023-02-01T11:20:52.406Z,3.90
2023-02-01T11:23:23.909Z,4.70
2023-02-01T11:25:57.818Z,4.50
2023-02-01T11:28:30.272Z,3.80
2023-02-01T11:31:02.726Z,2.30
2023-02-01T11:33:35.535Z,3.00
2023-02-01T11:36:12.656Z,2.70
2023-02-01T11:38:39.820Z,5.30
2023-02-01T11:41:20.271Z,3.80
2023-02-01T11:43:56.711Z,4.70
2023-02-01T11:46:29.445Z,2.60
2023-02-01T11:48:57.733Z,3.70
2023-02-01T11:51:53.930Z,2.40
2023-02-01T11:54:31.650Z,3.50
2023-02-01T11:57:13.350Z,3.50
2023-02-01T11:59:57.208Z,4.40
2023-02-01T12:02:53.790Z,2.10
2023-02-01T12:05:48.236Z,2.40
2023-02-01T12:08:53.533Z,2.60
2023-02-01T12:11:43.321Z,3.30
2023-02-01T12:14:37.369Z,2.50
2023-02-01T12:17:16.916Z,2.10
2023-02-01T12:20:23.923Z,2.70
2023-02-01T12:23:33.051Z,2.10
2023-02-01T12:26:20.708Z,2.70
2023-02-01T12:29:02.829Z,2.50
2023-02-01T12:31:54.544Z,2.60
2023-02-01T12:34:38.193Z,3.30
2023-02-01T12:37:32.514Z,3.20
2023-02-01T12:40:05.269Z,3.60
2023-02-01T12:42:43.429Z,2.70
2023-02-01T12:45:46.265Z,4.60
2023-02-01T12:48:34.174Z,3.10
2023-02-01T12:51:08.814Z,3.50
2023-02-01T12:53:51.098Z,5.40
2023-02-01T12:56:31.701Z,3.50
2023-02-01T12:59:07.152Z,3.20
2023-02-01T13:02:23.554Z,2.00
2023-02-01T13:05:13.970Z,2.60
2023-02-01T13:07:55.951Z,2.10
2023-02-01T13:10:23.086Z,3.10
2023-02-01T13:13:13.142Z,4.70
2023-02-01T13:15:44.682Z,2.40
2023-02-01T13:18:18.688Z,4.20
2023-02-01T13:21:16.313Z,2.40
2023-02-01T13:23:47.348Z,2.50
2023-02-01T13:26:14.359Z,3.50
2023-02-01T13:28:50.298Z,2.70
2023-02-01T13:31:24.032Z,3.30
2023-02-01T13:34:04.687Z,5.50
2023-02-01T13:37:08.527Z,5.10
2023-02-01T13:39:54.004Z,10.30
2023-02-01T13:42:34.914Z,7.50
2023-02-01T13:47:47.410Z,16.80
2023-02-01T13:50:22.894Z,13.90
2023-02-01T13:53:17.860Z,7.70
2023-02-01T13:55:50.135Z,7.10
2023-02-01T13:58:32.375Z,4.30
2023-02-01T14:01:21.147Z,4.60
2023-02-01T14:03:53.032Z,17.50
2023-02-01T14:06:30.371Z,47.40
2023-02-01T14:09:37.532Z,13.70
2023-02-01T14:12:39.940Z,9.10
2023-02-01T14:15:28.155Z,4.90
2023-02-01T14:17:56.179Z,4.90
2023-02-01T14:20:44.266Z,5.10
2023-02-01T14:23:18.375Z,6.40
2023-02-01T14:25:47.073Z,7.30
2023-02-01T14:28:26.674Z,8.90
2023-02-01T14:30:57.116Z,6.20
2023-02-01T14:33:27.272Z,7.10
2023-02-01T14:36:13.748Z,6.40
2023-02-01T14:38:49.494Z,5.60
2023-02-01T14:41:35.431Z,5.40
2023-02-01T14:44:02.551Z,7.10
2023-02-01T14:47:06.999Z,8.60
2023-02-01T14:49:38.611Z,6.00
2023-02-01T14:52:13.469Z,8.40
2023-02-01T14:54:40.500Z,9.30
2023-02-01T14:57:17.761Z,9.30
2023-02-01T14:59:46.613Z,9.10
2023-02-01T15:02:24.447Z,10.60
2023-02-01T15:04:56.839Z,9.00
2023-02-01T15:07:26.724Z,8.30
2023-02-01T15:09:58.096Z,8.70
2023-02-01T15:12:32.057Z,6.50
2023-02-01T15:15:11.307Z,8.50
2023-02-01T15:17:38.905Z,9.10
2023-02-01T15:20:17.002Z,10.00
2023-02-01T15:23:03.516Z,10.80
2023-02-01T15:25:39.289Z,8.50
2023-02-01T15:28:12.994Z,8.00
2023-02-01T15:30:40.113Z,7.70
2023-02-01T15:33:14.182Z,6.90
2023-02-01T15:35:48.748Z,7.20
2023-02-01T15:38:37.096Z,6.00
2023-02-01T15:41:08.632Z,5.90
2023-02-01T15:44:02.269Z,6.00
2023-02-01T15:46:43.261Z,7.30
2023-02-01T15:51:48.901Z,4.70
2023-02-01T15:54:50.234Z,5.50
2023-02-01T15:57:31.219Z,13.00
2023-02-01T16:02:33.381Z,10.50
2023-02-01T16:05:01.866Z,10.20
2023-02-01T16:07:31.535Z,8.90
2023-02-01T16:10:07.401Z,8.60
2023-02-01T16:12:47.772Z,8.60
2023-02-01T16:15:15.712Z,9.80
2023-02-01T16:17:44.127Z,9.80
2023-02-01T16:20:11.800Z,11.00
2023-02-01T16:22:38.735Z,8.20
2023-02-01T16:25:06.204Z,5.70
2023-02-01T16:27:33.212Z,6.00
2023-02-01T16:30:00.197Z,5.10
2023-02-01T16:32:27.379Z,5.30
2023-02-01T16:34:54.503Z,6.40
2023-02-01T16:37:25.311Z,6.50
2023-02-01T16:39:52.468Z,6.10
2023-02-01T16:42:19.519Z,6.90
2023-02-01T16:44:46.494Z,11.10
2023-02-01T16:47:24.068Z,11.30
2023-02-01T16:49:51.628Z,8.90
2023-02-01T16:52:22.149Z,8.90
2023-02-01T16:54:49.508Z,8.60
2023-02-01T16:57:18.672Z,8.70
2023-02-01T16:59:45.824Z,8.40
2023-02-01T17:02:22.347Z,8.20
2023-02-01T17:04:49.646Z,8.50
2023-02-01T17:07:19.023Z,8.00
2023-02-01T17:09:47.389Z,6.90
2023-02-01T17:12:23.853Z,8.20
2023-02-01T17:14:51.196Z,7.10
2023-02-01T17:17:25.690Z,6.70
2023-02-01T17:20:00.179Z,6.90
2023-02-01T17:22:27.237Z,6.40
2023-02-01T17:24:54.254Z,9.30
2023-02-01T17:27:21.259Z,7.40
2023-02-01T17:29:48.643Z,7.00
2023-02-01T17:32:19.546Z,8.20
2023-02-01T17:34:46.944Z,15.20
2023-02-01T17:37:24.474Z,19.00
2023-02-01T17:39:54.215Z,15.50
2023-02-01T17:42:22.587Z,10.90
2023-02-01T17:44:52.237Z,9.70
2023-02-01T17:47:19.177Z,9.00
2023-02-01T17:49:46.202Z,9.40
2023-02-01T17:52:18.269Z,7.00
2023-02-01T17:54:47.304Z,8.30
2023-02-01T17:57:14.368Z,6.50
2023-02-01T17:59:41.346Z,5.90
2023-02-01T18:02:19.439Z,4.40
2023-02-01T18:04:46.742Z,4.10
2023-02-01T18:07:13.707Z,2.90
2023-02-01T18:09:40.920Z,3.00
2023-02-01T18:12:22.304Z,3.20
2023-02-01T18:14:49.901Z,2.60
2023-02-01T18:17:16.978Z,2.80
2023-02-01T18:19:44.010Z,2.80
2023-02-01T18:22:17.214Z,2.00
2023-02-01T18:24:44.395Z,1.60
2023-02-01T18:27:11.375Z,1.60
2023-02-01T18:29:38.387Z,1.60
2023-02-01T18:32:05.419Z,2.10
2023-02-01T18:34:32.409Z,2.80
2023-02-01T18:37:00.034Z,2.40
2023-02-01T18:39:27.047Z,2.50
2023-02-01T18:41:53.984Z,4.40
2023-02-01T18:44:20.897Z,7.80
2023-02-01T18:46:47.897Z,3.60
2023-02-01T18:49:17.448Z,2.10
2023-02-01T18:51:44.855Z,1.40
2023-02-01T18:54:11.822Z,2.90
2023-02-01T18:56:39.425Z,1.60
2023-02-01T18:59:06.467Z,2.20
2023-02-01T19:01:33.473Z,1.20
2023-02-01T19:04:09.976Z,3.40
2023-02-01T19:06:40.712Z,1.60
2023-02-01T19:09:07.709Z,2.10
2023-02-01T19:11:34.679Z,1.90
2023-02-01T19:14:01.647Z,1.30
2023-02-01T19:16:28.649Z,1.20
2023-02-01T19:18:55.659Z,1.60
2023-02-01T19:21:22.593Z,1.40
2023-02-01T19:23:49.588Z,0.70
2023-02-01T19:26:17.817Z,2.20
2023-02-01T19:28:47.214Z,1.90
2023-02-01T19:31:15.605Z,1.00
2023-02-01T19:33:42.780Z,2.20
2023-02-01T19:36:10.363Z,1.30
2023-02-01T19:38:38.306Z,2.20
2023-02-01T19:41:05.977Z,2.20
2023-02-01T19:43:34.856Z,1.20
2023-02-01T19:46:02.310Z,3.40
2023-02-01T19:48:31.284Z,1.40
2023-02-01T19:50:58.799Z,2.30
2023-02-01T19:53:27.248Z,1.60
2023-02-01T19:55:56.439Z,2.20
2023-02-01T19:58:24.819Z,1.90
2023-02-01T20:00:55.873Z,1.00
2023-02-01T20:03:23.631Z,0.90
2023-02-01T20:05:56.228Z,2.50
2023-02-01T20:08:23.700Z,1.10
2023-02-01T20:10:51.165Z,2.10
2023-02-01T20:13:18.307Z,1.80
2023-02-01T20:15:45.414Z,2.30
2023-02-01T20:18:12.386Z,2.10
2023-02-01T20:20:41.162Z,2.40
2023-02-01T20:23:08.635Z,2.50
2023-02-01T20:25:37.285Z,4.30
2023-02-01T20:28:04.607Z,2.50
2023-02-01T20:30:31.853Z,2.80
2023-02-01T20:32:58.980Z,6.30
2023-02-01T20:35:26.289Z,4.40
2023-02-01T20:37:53.746Z,5.00
2023-02-01T20:40:20.714Z,5.80
2023-02-01T20:42:48.249Z,3.40
2023-02-01T20:45:15.435Z,4.90
2023-02-01T20:47:42.689Z,3.00
2023-02-01T20:50:10.445Z,3.60
2023-02-01T20:52:37.404Z,3.70
2023-02-01T20:55:04.652Z,4.10
2023-02-01T20:57:31.825Z,3.60
2023-02-01T20:59:58.911Z,4.80
2023-02-01T21:02:25.994Z,5.40
2023-02-01T21:04:53.086Z,4.80
2023-02-01T21:07:20.339Z,4.30
2023-02-01T21:09:47.306Z,4.50
2023-02-01T21:12:14.210Z,3.80
2023-02-01T21:14:41.134Z,5.50
2023-02-01T21:17:08.109Z,4.00
2023-02-01T21:19:44.072Z,3.00
2023-02-01T21:22:12.250Z,3.50
2023-02-01T21:24:42.476Z,4.50
2023-02-01T21:27:09.728Z,3.40
2023-02-01T21:29:37.006Z,3.30
2023-02-01T21:32:06.122Z,6.70
2023-02-01T21:34:34.151Z,4.70
2023-02-01T21:37:01.677Z,3.90
2023-02-01T21:39:28.763Z,3.40
2023-02-01T21:42:15.927Z,5.10
2023-02-01T21:44:45.566Z,4.20
2023-02-01T21:47:16.767Z,5.70
2023-02-01T21:49:45.227Z,7.50
2023-02-01T21:52:14.327Z,7.00
2023-02-01T21:54:41.913Z,6.10
2023-02-01T21:57:11.991Z,5.70
2023-02-01T21:59:40.012Z,5.00
2023-02-01T22:02:12.455Z,6.10
2023-02-01T22:04:39.694Z,4.70
2023-02-01T22:07:06.999Z,3.90
2023-02-01T22:09:34.041Z,5.80
2023-02-01T22:12:01.048Z,3.50
2023-02-01T22:14:27.946Z,3.70
2023-02-01T22:16:55.200Z,3.40
2023-02-01T22:19:22.263Z,4.00
2023-02-01T22:21:49.240Z,3.80
2023-02-01T22:24:20.462Z,4.30
2023-02-01T22:26:48.752Z,3.50
2023-02-01T22:29:18.643Z,3.60
2023-02-01T22:31:46.427Z,5.30
2023-02-01T22:34:13.585Z,3.40
2023-02-01T22:36:40.657Z,3.50
2023-02-01T22:39:07.974Z,2.30
2023-02-01T22:41:35.140Z,2.60
2023-02-01T22:44:02.192Z,3.40
2023-02-01T22:46:30.815Z,2.00
2023-02-01T22:48:58.733Z,5.50
2023-02-01T22:51:30.608Z,3.50
2023-02-01T22:53:57.827Z,3.20
2023-02-01T22:56:29.596Z,2.90
2023-02-01T22:58:58.841Z,3.00
2023-02-01T23:01:26.232Z,4.10
2023-02-01T23:03:58.406Z,4.00
2023-02-01T23:06:26.520Z,3.60
2023-02-01T23:08:55.547Z,4.50
2023-02-01T23:11:23.478Z,5.30
2023-02-01T23:13:50.619Z,4.10
2023-02-01T23:16:17.636Z,4.90
2023-02-01T23:18:45.214Z,5.60
2023-02-01T23:21:17.546Z,4.10
2023-02-01T23:23:52.670Z,5.60
2023-02-01T23:26:20.687Z,6.10
2023-02-01T23:28:50.031Z,4.70
2023-02-01T23:31:17.082Z,4.20
2023-02-01T23:33:45.143Z,4.80
2023-02-01T23:36:15.466Z,4.70
2023-02-01T23:38:43.532Z,3.70
2023-02-01T23:41:12.419Z,3.90
2023-02-01T23:43:58.104Z,4.40
2023-02-01T23:46:30.743Z,3.70
2023-02-01T23:48:58.576Z,3.80
2023-02-01T23:51:26.123Z,3.60
2023-02-01T23:53:54.261Z,4.20
2023-02-01T23:56:24.771Z,3.00
2023-02-01T23:58:53.189Z,3.70
